Flight Track Log - Related Links

Times and Time Zones

All times are in EDT time to prevent confusion due to time zone crossing. See the SWA508 flight status page for this flight to view local times or setup timezone preferences in your user account.

Time Position Orientation Groundspeed Altitude Reporting Facility
EDT Latitude Longitude Course Direction KTS MPH feet Rate Location/Type
Wed 09:39:44 PM 18.4500 -65.9500 317° Northwest 200 230 1,700  Level San Juan Center
Wed 09:40:44 PM 18.5167 -65.9833 335° Northwest 270 311 5,000 3,300 Climbing San Juan Center
Wed 09:41:44 PM 18.5667 -66.0167 328° Northwest 270 311 8,300 2,727 Climbing San Juan Center
Wed 09:42:45 PM 18.6333 -66.0833 317° Northwest 300 345 10,500 2,033 Climbing San Juan Center
Wed 09:43:45 PM 18.6833 -66.1667 302° West 350 403 12,400 2,200 Climbing San Juan Center
Wed 09:44:45 PM 18.7500 -66.2500 310° West 370 426 14,900 2,430 Climbing San Juan Center
Wed 09:45:00 PM 18.9492 -66.4992 317° Northwest  Level FlightAware Approximate
Wed 09:45:46 PM 18.8167 -66.3333 310° West 400 460 17,300  Level San Juan Center
Wed 09:46:46 PM 18.9000 -66.4333 311° West 400 460 19,300 2,000 Climbing San Juan Center
Wed 09:47:46 PM 18.9667 -66.5167 310° West 420 483 21,300 1,983 Climbing San Juan Center
Wed 09:48:47 PM 19.0500 -66.6167 311° West 430 495 23,300 1,736 Climbing San Juan Center
Wed 09:49:47 PM 19.1333 -66.7167 311° West 450 518 24,800 1,600 Climbing San Juan Center
Wed 09:50:47 PM 19.2167 -66.8167 311° West 470 541 26,500 1,537 Climbing San Juan Center
Wed 09:51:48 PM 19.3000 -66.9333 307° West 460 529 27,900 1,289 Climbing San Juan Center
Wed 09:52:48 PM 19.3833 -67.0333 311° West 480 552 29,100 1,350 Climbing San Juan Center
Wed 09:53:48 PM 19.4667 -67.1500 307° West 480 552 30,600 1,500 Climbing San Juan Center
Wed 09:54:48 PM 19.5667 -67.2500 317° Northwest 470 541 32,100 1,240 Climbing San Juan Center
Wed 09:55:49 PM 19.6333 -67.3500 305° West 470 541 33,100 992 Climbing San Juan Center
Wed 09:56:49 PM 19.7167 -67.4667 307° West 450 518 34,100 950 Climbing San Juan Center
Wed 09:57:49 PM 19.8000 -67.5833 307° West 470 541 35,000 942 Climbing San Juan Center
Wed 09:58:50 PM 19.8833 -67.7000 307° West 480 552 36,000 496 Climbing San Juan Center
Wed 09:59:50 PM 19.9667 -67.8000 312° West 480 552 36,000  Level San Juan Center
Wed 10:00:50 PM 20.0500 -67.9167 307° West 480 552 36,000  Level San Juan Center
Wed 10:02:20 PM 20.1703 -68.0711 310° West 493 567 36,000  Level Miami Center
Wed 10:03:21 PM 20.2494 -68.1850 307° West 491 565 36,000  Level Miami Center
Wed 10:04:18 PM 20.3203 -68.2997 303° West 480 552 36,000  Level Miami Center
Wed 10:05:20 PM 20.4011 -68.4094 308° West 480 552 36,000  Level Miami Center
Wed 10:06:20 PM 20.4800 -68.5194 307° West 475 547 36,000  Level Miami Center
Wed 10:07:18 PM 20.5506 -68.6344 303° West 475 547 36,000  Level Miami Center
Wed 10:08:18 PM 20.6292 -68.7447 307° West 475 547 36,000  Level Miami Center
Wed 10:09:18 PM 20.7017 -68.8578 304° West 470 541 36,000  Level Miami Center
Wed 10:10:19 PM 20.7783 -68.9706 306° West 470 541 36,000  Level Miami Center
Wed 10:11:20 PM 20.8528 -69.0814 306° West 475 547 36,000  Level Miami Center
Wed 10:12:18 PM 20.9292 -69.1969 305° West 475 547 36,000  Level Miami Center
Wed 10:13:18 PM 21.0014 -69.3081 305° West 475 547 36,000  Level Miami Center
Wed 10:14:18 PM 21.0736 -69.4194 305° West 475 547 36,000  Level Miami Center
Wed 10:15:19 PM 21.1497 -69.5331 306° West 475 547 36,000  Level Miami Center
Wed 10:16:19 PM 21.2217 -69.6447 305° West 475 547 36,000  Level Miami Center
Wed 10:17:19 PM 21.2978 -69.7539 307° West 475 547 36,000  Level Miami Center
Wed 10:18:20 PM 21.3758 -69.8656 307° West 470 541 36,000  Level Miami Center
Wed 10:19:20 PM 21.4433 -69.9778 303° West 470 541 36,000  Level Miami Center
Wed 10:20:19 PM 21.5150 -70.0878 305° West 470 541 36,000  Level Miami Center
Wed 10:21:19 PM 21.5886 -70.1978 306° West 465 535 36,000  Level Miami Center
Wed 10:22:20 PM 21.6644 -70.3100 306° West 460 529 36,000  Level Miami Center
Wed 10:23:20 PM 21.7358 -70.4225 304° West 455 524 36,000  Level Miami Center
Wed 10:24:20 PM 21.8072 -70.5328 305° West 455 524 36,000  Level Miami Center
Wed 10:25:20 PM 21.8828 -70.6456 306° West 455 524 36,000  Level Miami Center
Wed 10:26:21 PM 21.9539 -70.7583 304° West 450 518 36,000  Level Miami Center
Wed 10:27:19 PM 22.0275 -70.8736 305° West 455 524 36,000  Level Miami Center
Wed 10:28:19 PM 22.0986 -70.9844 305° West 455 524 36,000  Level Miami Center
Wed 10:29:19 PM 22.1717 -71.0956 305° West 455 524 36,000  Level Miami Center
Wed 10:30:20 PM 22.2425 -71.2089 304° West 450 518 36,000  Level Miami Center
Wed 10:31:18 PM 22.3114 -71.3203 304° West 450 518 36,000  Level Miami Center
Wed 10:32:20 PM 22.3822 -71.4294 305° West 450 518 36,000  Level Miami Center
Wed 10:33:20 PM 22.4550 -71.5433 305° West 450 518 36,000  Level Miami Center
Wed 10:34:18 PM 22.5236 -71.6528 304° West 450 518 36,000  Level Miami Center
Wed 10:35:18 PM 22.5942 -71.7669 304° West 450 518 36,000  Level Miami Center
Wed 10:36:19 PM 22.6628 -71.8811 303° West 450 518 36,000  Level Miami Center
Wed 10:37:19 PM 22.7331 -71.9908 305° West 450 518 36,000  Level Miami Center
Wed 10:38:19 PM 22.8033 -72.1008 305° West 450 518 36,000  Level Miami Center
Wed 10:39:20 PM 22.8736 -72.2108 305° West 450 518 36,000  Level Miami Center
Wed 10:40:18 PM 22.9419 -72.3258 303° West 450 518 36,000  Level Miami Center
Wed 10:41:18 PM 23.0119 -72.4336 305° West 450 518 36,000  Level Miami Center
Wed 10:42:18 PM 23.0803 -72.5600 300° West 445 512 36,000  Level Miami Center
Wed 10:43:18 PM 23.1522 -72.6706 305° West 450 518 36,000  Level Miami Center
Wed 10:44:18 PM 23.2203 -72.7836 303° West 450 518 36,000  Level Miami Center
Wed 10:45:20 PM 23.2878 -72.8922 304° West 450 518 36,000  Level Miami Center
Wed 10:46:18 PM 23.3575 -73.0008 305° West 450 518 36,000  Level Miami Center
Wed 10:47:18 PM 23.4228 -73.1097 303° West 445 512 36,000  Level Miami Center
Wed 10:48:21 PM 23.4944 -73.2208 305° West 445 512 36,000  Level Miami Center
Wed 10:49:18 PM 23.5661 -73.3319 305° West 445 512 36,000  Level Miami Center
Wed 10:50:18 PM 23.6250 -73.4417 300° West 445 512 36,000  Level Miami Center
Wed 10:51:19 PM 23.6944 -73.5508 305° West 445 512 36,000  Level Miami Center
Wed 10:52:19 PM 23.7594 -73.6625 302° West 445 512 36,000  Level Miami Center
Wed 10:53:19 PM 23.8286 -73.7744 304° West 445 512 36,000  Level Miami Center
Wed 10:54:21 PM 23.9000 -73.8861 305° West 450 518 36,000  Level Miami Center
Wed 10:55:19 PM 23.9689 -73.9983 304° West 450 518 36,000  Level Miami Center
Wed 10:56:20 PM 24.0339 -74.1106 302° West 450 518 36,000  Level Miami Center
Wed 10:57:19 PM 24.1028 -74.2228 304° West 450 518 36,000  Level Miami Center
Wed 10:58:21 PM 24.1694 -74.3353 303° West 450 518 36,000  Level Miami Center
Wed 10:59:19 PM 24.2403 -74.4500 304° West 450 518 36,000  Level Miami Center
Wed 11:00:19 PM 24.3047 -74.5628 302° West 450 518 36,000  Level Miami Center
Wed 11:01:20 PM 24.3733 -74.6756 304° West 450 518 36,000  Level Miami Center
Wed 11:02:20 PM 24.4375 -74.7864 302° West 450 518 36,000  Level Miami Center
Wed 11:03:18 PM 24.5103 -74.9039 304° West 450 518 36,000  Level Miami Center
Wed 11:04:20 PM 24.5764 -75.0169 303° West 450 518 36,000  Level Miami Center
Wed 11:05:21 PM 24.6425 -75.1281 303° West 450 518 36,000  Level Miami Center
Wed 11:06:21 PM 24.7108 -75.2483 302° West 450 518 36,000  Level Miami Center
Wed 11:07:20 PM 24.7769 -75.3619 303° West 450 518 36,000  Level Miami Center
Wed 11:08:21 PM 24.8447 -75.4756 303° West 450 518 36,000  Level Miami Center
Wed 11:09:21 PM 24.9106 -75.5917 302° West 450 518 36,000  Level Miami Center
Wed 11:10:18 PM 24.9786 -75.7056 303° West 450 518 36,000  Level Miami Center
Wed 11:11:19 PM 25.0442 -75.8197 302° West 450 518 36,000  Level Miami Center
Wed 11:12:21 PM 25.1158 -75.9339 305° West 450 518 36,000  Level Miami Center
Wed 11:13:18 PM 25.1814 -76.0506 302° West 450 518 36,000  Level Miami Center
Wed 11:14:18 PM 25.2467 -76.1672 302° West 450 518 36,000  Level Miami Center
Wed 11:15:20 PM 25.3164 -76.2842 303° West 450 518 36,000  Level Miami Center
Wed 11:16:20 PM 25.3836 -76.4011 302° West 450 518 36,000  Level Miami Center
Wed 11:17:18 PM 25.4528 -76.5203 303° West 450 518 36,000  Level Miami Center
Wed 11:18:18 PM 25.5200 -76.6400 302° West 450 518 36,000  Level Miami Center
Wed 11:19:19 PM 25.5850 -76.7572 302° West 450 518 36,000  Level Miami Center
Wed 11:20:20 PM 25.6539 -76.8750 303° West 450 518 36,000  Level Miami Center
Wed 11:21:18 PM 25.7208 -76.9972 301° West 450 518 36,000  Level Miami Center
Wed 11:22:18 PM 25.7917 -77.1172 303° West 450 518 36,000  Level Miami Center
Wed 11:23:20 PM 25.8583 -77.2353 302° West 450 518 36,000  Level Miami Center
Wed 11:24:20 PM 25.9228 -77.3533 301° West 450 518 36,000  Level Miami Center
Wed 11:25:19 PM 25.9892 -77.4736 302° West 450 518 36,000  Level Miami Center
Wed 11:26:18 PM 26.0492 -77.5781 303° West 450 518 36,000  Level Miami Center
Wed 11:27:20 PM 26.1156 -77.6964 302° West 450 518 36,000  Level Miami Center
Wed 11:28:18 PM 26.1817 -77.8197 301° West 450 518 36,000  Level Miami Center
Wed 11:29:19 PM 26.2497 -77.9361 303° West 450 518 36,000  Level Miami Center
Wed 11:30:18 PM 26.3136 -78.0572 300° West 450 518 36,000  Level Miami Center
Wed 11:31:20 PM 26.3772 -78.1739 301° West 445 512 36,000  Level Miami Center
Wed 11:32:18 PM 26.4408 -78.2953 300° West 451 519 36,000  Level Miami Center
Wed 11:33:21 PM 26.5067 -78.4050 304° West 445 512 36,000  Level Miami Center
Wed 11:34:18 PM 26.5700 -78.5244 301° West 445 512 36,000  Level Miami Center
Wed 11:35:20 PM 26.6336 -78.6417 301° West 445 512 36,000  Level Miami Center
Wed 11:36:18 PM 26.7031 -78.7611 303° West 445 512 36,000  Level Miami Center
Wed 11:37:19 PM 26.7619 -78.8761 300° West 445 512 36,000  Level Miami Center
Wed 11:38:19 PM 26.8253 -78.9914 302° West 445 512 36,000  Level Miami Center
Wed 11:39:20 PM 26.8881 -79.1089 301° West 451 519 36,000 -101 Level Miami Center
Wed 11:40:18 PM 26.9531 -79.2292 301° West 451 519 35,800 -655 Descending Miami Center
Wed 11:41:19 PM 27.0219 -79.3564 301° West 446 513 34,700 -1,000 Descending Miami Center
Wed 11:42:18 PM 27.0867 -79.4744 302° West 451 519 33,800 -908 Descending Miami Center
Wed 11:43:18 PM 27.1514 -79.5950 301° West 451 519 32,900 -927 Descending Miami Center
Wed 11:44:21 PM 27.2078 -79.7036 300° West 451 519 31,900 -942 Descending Miami Center
Wed 11:45:19 PM 27.2742 -79.8267 301° West 451 519 31,000 -974 Descending Miami Center
Wed 11:46:18 PM 27.3361 -79.9522 299° West 451 519 30,000 -984 Descending Miami Center
Wed 11:47:21 PM 27.4003 -80.0756 300° West 456 525 29,000 -992 Descending Miami Center
Wed 11:48:19 PM 27.4664 -80.1992 301° West 456 525 28,000 -1,026 Descending Miami Center
Wed 11:49:18 PM 27.5283 -80.3181 300° West 456 525 27,000 -1,438 Descending Miami Center
Wed 11:50:20 PM 27.5903 -80.4372 300° West 450 518 25,100 -1,909 Descending Miami Center
Wed 11:51:30 PM 27.6581 -80.5611 302° West 439 505 22,800 -2,301 Descending Miami Center
Wed 11:52:33 PM 27.7256 -80.6947 300° West 428 493 20,000 -2,508 Descending Miami Center
Wed 11:53:32 PM 27.7853 -80.8000 303° West 403 464 17,700 -2,330 Descending Miami Center
Wed 11:55:41 PM 27.9000 -81.0333 299° West 379 436 12,700 -2,127 Descending Orlando TRACON
Wed 11:56:41 PM 27.9667 -81.1167 312° West 370 426 11,000 -950 Descending Orlando TRACON
Wed 11:57:41 PM 28.0667 -81.1500 344° North 357 411 10,800 -350 Descending Orlando TRACON
Wed 11:58:41 PM 28.1500 -81.1833 341° North 294 338 10,300 -1,000 Descending Orlando TRACON
Wed 11:59:41 PM 28.2333 -81.1833 360° North 300 345 8,800 -1,333 Descending Orlando TRACON
Thu 12:00:47 AM 28.3167 -81.1833 360° North 294 338 7,500 -1,150 Descending Orlando TRACON
Thu 12:01:41 AM 28.3833 -81.1833 360° North 282 325 6,500 -1,316 Descending Orlando TRACON
Thu 12:02:41 AM 28.4667 -81.1833 360° North 262 302 5,000 -1,550 Descending Orlando TRACON
Thu 12:03:41 AM 28.5333 -81.2000 348° North 254 292 3,400 -1,357 Descending Orlando TRACON
Thu 12:04:36 AM 28.5500 -81.2667 286° West 199 229 2,400 -1,053 Descending Orlando TRACON
Thu 12:05:35 AM 28.5167 -81.3000 221° Southwest 152 175 1,400 -816 Descending Orlando TRACON
Thu 12:06:41 AM 28.4667 -81.3000 180° South 143 165 700 -636 Descending Orlando TRACON
Thu 12:08:00 AM 28.4294 -81.3090 199° South  Level Estimated

Login

Don't have an account? Register now (free) for customized features, flight alerts, and more!